Terminal Aerodrome Forecast
Issued by NWS

Home | Current Version | Previous Version | Text Only | Print | Product List | Glossary On
Versions: 1 2 3 4 5 6 7 8 9 10 11 12 13 14 15 16 17 18 19 20
000
FTUS44 KSJT 230100 AAC
TAFBBD
TAF AMD
KBBD 230138Z 2302/2324 03011KT P6SM -SHRA BKN050 OVC090
     FM230300 VRB06KT P6SM BKN120
     FM231500 24010G16KT P6SM SKC
     FM231800 29020G30KT P6SM SKC=

USA.gov is the U.S. government's official web portal to all federal, state and local government web resources and services.